Time;durP1;ratioP1;P1;durP2;ratioP2;P2;SDS_P1;SDS_P2;PMS_P1;PMS_P2;Temp;Humidity;BMP_temperature;BMP_pressure;BME280_temperature;BME280_humidity;BME280_pressure;Samples;Min_cycle;Max_cycle;Signal;HPM_P1;HPM_P2
2021/12/01 00:00:00;;;;;;;3.78;1.15;;;10.00;99.90;;;;;;4995050;28;20032;-75
2021/12/01 00:02:26;;;;;;;3.60;0.73;;;10.00;99.90;;;;;;4993700;28;20113;-76
2021/12/01 00:04:52;;;;;;;2.35;1.13;;;10.10;99.90;;;;;;4994453;28;20483;-75
2021/12/01 00:07:18;;;;;;;2.83;1.10;;;10.10;99.90;;;;;;4994856;28;20447;-76
2021/12/01 00:09:44;;;;;;;3.63;1.17;;;10.10;99.90;;;;;;4994373;28;20022;-76
2021/12/01 00:12:10;;;;;;;1.67;0.95;;;10.10;99.90;;;;;;4994792;28;20459;-76
2021/12/01 00:14:35;;;;;;;2.65;0.95;;;10.10;99.90;;;;;;4994249;28;20033;-75
2021/12/01 00:17:02;;;;;;;1.80;0.80;;;10.10;99.90;;;;;;4994670;28;20022;-75
2021/12/01 00:19:29;;;;;;;2.20;0.70;;;10.10;99.90;;;;;;4994557;28;20030;-75
2021/12/01 00:21:56;;;;;;;2.05;0.70;;;10.10;99.90;;;;;;4994135;28;20530;-75
2021/12/01 00:24:21;;;;;;;3.83;1.13;;;10.20;99.90;;;;;;4993372;28;20022;-75
2021/12/01 00:26:47;;;;;;;2.05;1.10;;;10.10;99.90;;;;;;4992762;28;20105;-75
2021/12/01 00:29:13;;;;;;;1.95;0.98;;;10.10;99.90;;;;;;4994139;28;20030;-75
2021/12/01 00:31:39;;;;;;;4.63;0.90;;;10.20;99.90;;;;;;4993915;28;20022;-75
2021/12/01 00:34:04;;;;;;;2.45;0.70;;;10.20;99.90;;;;;;4994274;28;20022;-75
2021/12/01 00:36:30;;;;;;;3.47;1.38;;;10.20;99.90;;;;;;4993890;28;20026;-75
2021/12/01 00:38:56;;;;;;;3.75;1.15;;;10.20;99.90;;;;;;4992093;28;20085;-75
2021/12/01 00:41:23;;;;;;;2.53;0.80;;;10.20;99.90;;;;;;4994115;28;20108;-75
2021/12/01 00:43:49;;;;;;;1.90;1.00;;;10.20;99.90;;;;;;4993859;28;20038;-75
2021/12/01 00:46:35;;;;;;;1.25;0.70;;;10.20;99.90;;;;;;4994042;28;20029;-75
2021/12/01 00:49:01;;;;;;;3.83;0.98;;;10.20;99.90;;;;;;4994517;28;20077;-75
2021/12/01 00:51:27;;;;;;;1.52;0.80;;;10.20;99.90;;;;;;4994055;28;20034;-75
2021/12/01 00:53:52;;;;;;;1.20;0.68;;;10.20;99.90;;;;;;4992088;28;20349;-75
2021/12/01 00:56:18;;;;;;;2.53;1.10;;;10.20;99.90;;;;;;4993777;28;20023;-75
2021/12/01 00:58:43;;;;;;;1.95;0.98;;;10.20;99.90;;;;;;4993079;28;20073;-75
2021/12/01 01:01:09;;;;;;;1.42;0.88;;;10.20;99.90;;;;;;4993497;28;20027;-75
2021/12/01 01:03:35;;;;;;;2.55;0.93;;;10.20;99.90;;;;;;4994011;28;20076;-75
2021/12/01 01:06:01;;;;;;;2.53;0.90;;;10.20;99.90;;;;;;4992482;28;20436;-75
2021/12/01 01:08:27;;;;;;;1.23;0.60;;;10.20;99.90;;;;;;4992381;28;20451;-75
2021/12/01 01:16:25;;;;;;;0.65;0.50;;;10.20;99.90;;;;;;4993572;28;20041;-75
2021/12/01 01:19:00;;;;;;;1.02;0.60;;;10.20;99.90;;;;;;4991765;28;20117;-75
2021/12/01 01:21:29;;;;;;;0.85;0.60;;;10.20;99.90;;;;;;4993181;28;20030;-75
2021/12/01 01:23:55;;;;;;;0.50;0.40;;;10.20;99.90;;;;;;4992985;28;20022;-75
2021/12/01 01:26:23;;;;;;;1.45;0.60;;;10.20;99.90;;;;;;4993357;28;20037;-75
2021/12/01 01:28:50;;;;;;;0.82;0.47;;;10.20;99.90;;;;;;4992832;28;20030;-75
2021/12/01 01:31:16;;;;;;;1.08;0.60;;;10.30;99.90;;;;;;4993235;28;20100;-75
2021/12/01 01:33:42;;;;;;;0.60;0.38;;;10.20;99.90;;;;;;4992824;28;20053;-75
2021/12/01 01:36:08;;;;;;;0.90;0.40;;;10.20;99.90;;;;;;4992902;28;20093;-75
2021/12/01 01:38:35;;;;;;;0.77;0.40;;;10.20;99.90;;;;;;4992660;28;20041;-75
2021/12/01 01:41:06;;;;;;;0.63;0.45;;;10.30;99.90;;;;;;4992694;28;20050;-75
2021/12/01 01:43:33;;;;;;;1.13;0.47;;;10.30;99.90;;;;;;4991787;28;20537;-75
2021/12/01 01:45:59;;;;;;;1.65;0.60;;;10.30;99.90;;;;;;4992657;28;20030;-75
2021/12/01 01:48:32;;;;;;;1.70;0.60;;;10.20;99.90;;;;;;4993480;28;20030;-75
2021/12/01 01:51:04;;;;;;;0.45;0.40;;;10.30;99.90;;;;;;4991106;28;20108;-75
2021/12/01 01:53:33;;;;;;;1.67;0.40;;;10.30;99.90;;;;;;4991693;28;20031;-75
2021/12/01 01:56:01;;;;;;;1.70;0.50;;;10.30;99.90;;;;;;4992557;28;20021;-75
2021/12/01 01:58:28;;;;;;;0.57;0.50;;;10.30;99.90;;;;;;4991742;28;20428;-75
2021/12/01 02:01:06;;;;;;;1.23;0.60;;;10.20;99.90;;;;;;4991256;28;20414;-74
2021/12/01 02:03:38;;;;;;;0.85;0.40;;;10.20;99.90;;;;;;4991672;28;20097;-75
2021/12/01 02:06:06;;;;;;;0.98;0.40;;;10.30;99.90;;;;;;4991306;28;20072;-75
2021/12/01 02:08:33;;;;;;;0.90;0.43;;;10.20;99.90;;;;;;4992510;28;20402;-75
2021/12/01 02:11:02;;;;;;;0.40;0.40;;;10.20;99.90;;;;;;4992107;28;20069;-75
2021/12/01 02:13:28;;;;;;;0.47;0.40;;;10.20;99.90;;;;;;4991553;28;20069;-75
2021/12/01 02:15:55;;;;;;;0.85;0.40;;;10.20;99.90;;;;;;4992382;28;20030;-76
2021/12/01 02:18:21;;;;;;;0.43;0.30;;;10.20;99.90;;;;;;4992707;28;20092;-76
2021/12/01 02:21:06;;;;;;;0.55;0.38;;;10.20;99.90;;;;;;4992368;28;20099;-77
2021/12/01 02:23:35;;;;;;;0.50;0.40;;;10.20;99.90;;;;;;4991504;28;20029;-75
2021/12/01 02:26:02;;;;;;;1.23;0.32;;;10.20;99.90;;;;;;4992328;28;20034;-75
2021/12/01 02:28:29;;;;;;;0.77;0.45;;;10.20;99.90;;;;;;4992622;28;20026;-75
2021/12/01 02:30:55;;;;;;;1.25;0.52;;;10.20;99.90;;;;;;4990972;28;20459;-75
2021/12/01 02:33:21;;;;;;;0.85;0.30;;;10.20;99.90;;;;;;4992635;28;20037;-75
2021/12/01 02:35:46;;;;;;;0.93;0.40;;;10.10;99.90;;;;;;4992466;28;20443;-74
2021/12/01 02:38:12;;;;;;;0.50;0.50;;;10.10;99.90;;;;;;4992549;28;20398;-75
2021/12/01 02:40:37;;;;;;;1.10;0.60;;;10.10;99.90;;;;;;4992270;28;20483;-75
2021/12/01 02:43:03;;;;;;;2.00;0.50;;;10.10;99.90;;;;;;4992117;28;20118;-75
2021/12/01 02:45:29;;;;;;;1.33;0.70;;;10.00;99.90;;;;;;4991244;28;20113;-74
2021/12/01 02:47:54;;;;;;;0.80;0.40;;;10.10;99.90;;;;;;4991857;28;20493;-75
2021/12/01 02:50:20;;;;;;;0.50;0.38;;;10.00;99.90;;;;;;4994035;28;20570;-75
2021/12/01 02:52:46;;;;;;;0.45;0.35;;;10.00;99.90;;;;;;4995479;28;20030;-75
2021/12/01 02:55:15;;;;;;;1.05;0.45;;;10.00;99.90;;;;;;4994830;28;20026;-75
2021/12/01 02:57:49;;;;;;;0.60;0.40;;;10.00;99.90;;;;;;4995976;28;20030;-75
2021/12/01 03:00:17;;;;;;;1.10;0.40;;;10.00;99.90;;;;;;4994819;28;20037;-75
2021/12/01 03:02:43;;;;;;;0.60;0.45;;;9.90;99.90;;;;;;5005370;28;20030;-75
2021/12/01 03:05:10;;;;;;;0.38;0.38;;;9.90;99.90;;;;;;5014176;28;20040;-75
2021/12/01 03:07:37;;;;;;;1.17;0.40;;;9.90;99.90;;;;;;5014172;28;20430;-75
2021/12/01 03:10:05;;;;;;;0.30;0.30;;;9.80;99.90;;;;;;5015015;28;20029;-75
2021/12/01 03:12:33;;;;;;;0.35;0.30;;;9.80;99.90;;;;;;5015680;28;20060;-76
2021/12/01 03:14:59;;;;;;;1.27;0.40;;;9.80;99.90;;;;;;5015284;28;20022;-75
2021/12/01 03:17:29;;;;;;;0.38;0.38;;;9.80;99.90;;;;;;5015088;28;20024;-75
2021/12/01 03:19:55;;;;;;;1.48;0.43;;;9.80;99.90;;;;;;5014818;28;20030;-75
2021/12/01 03:22:22;;;;;;;0.80;0.40;;;9.70;99.90;;;;;;5015559;28;20029;-75
2021/12/01 03:24:47;;;;;;;1.77;0.55;;;9.70;99.90;;;;;;5013428;28;20053;-75
2021/12/01 03:27:14;;;;;;;0.40;0.40;;;9.70;99.90;;;;;;5015158;28;20056;-76
2021/12/01 03:29:40;;;;;;;0.43;0.40;;;9.70;99.90;;;;;;5013913;28;20381;-75
2021/12/01 03:32:07;;;;;;;0.73;0.40;;;9.70;99.90;;;;;;5014576;28;20026;-75
2021/12/01 03:34:35;;;;;;;0.40;0.32;;;9.70;99.90;;;;;;5013719;28;20014;-75
2021/12/01 03:37:01;;;;;;;0.52;0.40;;;9.70;99.90;;;;;;5014817;28;20053;-75
2021/12/01 03:39:27;;;;;;;0.30;0.30;;;9.70;99.90;;;;;;5014372;28;20053;-75
2021/12/01 03:41:52;;;;;;;0.80;0.40;;;9.70;99.90;;;;;;5012861;28;20359;-74
2021/12/01 03:44:18;;;;;;;0.75;0.38;;;9.60;99.90;;;;;;5014813;28;20022;-74
2021/12/01 03:46:44;;;;;;;0.63;0.40;;;9.60;99.90;;;;;;5013452;28;20423;-74
2021/12/01 03:49:10;;;;;;;0.68;0.45;;;9.60;99.90;;;;;;5014404;28;20081;-74
2021/12/01 03:51:36;;;;;;;0.82;0.43;;;9.60;99.90;;;;;;5014633;28;20104;-74
2021/12/01 03:54:02;;;;;;;0.70;0.30;;;9.50;99.90;;;;;;5014280;28;20030;-75
2021/12/01 03:56:29;;;;;;;1.17;0.40;;;9.50;99.90;;;;;;5014656;28;20025;-74
2021/12/01 03:58:56;;;;;;;0.30;0.30;;;9.50;99.90;;;;;;5012839;28;20113;-74
2021/12/01 04:01:22;;;;;;;1.65;0.55;;;9.40;99.90;;;;;;5014261;28;20096;-75
2021/12/01 04:03:47;;;;;;;0.50;0.47;;;9.40;99.90;;;;;;5013136;28;20021;-74
2021/12/01 04:06:13;;;;;;;0.65;0.40;;;9.40;99.90;;;;;;5014475;28;20032;-76
2021/12/01 04:08:39;;;;;;;1.00;0.47;;;9.40;99.90;;;;;;5014450;28;20026;-74
2021/12/01 04:11:05;;;;;;;0.73;0.50;;;9.40;99.90;;;;;;5013962;28;20037;-74
2021/12/01 04:13:30;;;;;;;1.23;0.40;;;9.40;99.90;;;;;;5012861;28;20459;-74
2021/12/01 04:15:56;;;;;;;0.50;0.30;;;9.40;99.90;;;;;;5012585;28;20029;-74
2021/12/01 04:18:22;;;;;;;0.85;0.45;;;9.40;99.90;;;;;;5014043;28;20034;-75
2021/12/01 04:20:47;;;;;;;1.20;0.40;;;9.40;99.90;;;;;;5013826;28;20026;-74
2021/12/01 04:23:13;;;;;;;0.98;0.50;;;9.40;99.90;;;;;;5012324;28;20025;-74
2021/12/01 04:25:39;;;;;;;0.80;0.40;;;9.40;99.90;;;;;;5014082;28;20412;-74
2021/12/01 04:28:06;;;;;;;1.75;0.40;;;9.40;99.90;;;;;;5013903;28;20087;-74
2021/12/01 04:30:32;;;;;;;1.45;0.50;;;9.30;99.90;;;;;;5012653;28;20458;-74
2021/12/01 04:32:59;;;;;;;1.77;0.57;;;9.30;99.90;;;;;;5013453;28;20029;-74
2021/12/01 04:35:26;;;;;;;1.13;0.60;;;9.40;99.90;;;;;;5013831;28;20022;-74
2021/12/01 04:37:53;;;;;;;1.05;0.47;;;9.40;99.90;;;;;;5013395;28;20022;-75
2021/12/01 04:40:19;;;;;;;2.10;0.68;;;9.40;99.90;;;;;;5013644;28;20071;-76
2021/12/01 04:42:44;;;;;;;0.63;0.52;;;9.40;99.90;;;;;;5012382;28;20132;-76
2021/12/01 04:45:15;;;;;;;2.05;0.80;;;9.40;99.90;;;;;;5011972;28;20026;-73
2021/12/01 04:47:50;;;;;;;1.35;0.75;;;9.40;99.90;;;;;;5013769;28;20026;-76
2021/12/01 04:50:18;;;;;;;1.05;0.70;;;9.40;99.90;;;;;;5012855;28;20022;-74
2021/12/01 04:52:45;;;;;;;1.33;0.77;;;9.30;99.90;;;;;;5013298;28;20493;-76
2021/12/01 04:55:11;;;;;;;1.35;0.70;;;9.30;99.90;;;;;;5013117;28;20029;-74
2021/12/01 04:57:41;;;;;;;1.90;0.70;;;9.40;99.90;;;;;;5013494;28;20052;-75
2021/12/01 05:00:10;;;;;;;0.98;0.70;;;9.40;99.90;;;;;;5013022;28;20038;-75
2021/12/01 05:02:35;;;;;;;2.45;0.80;;;9.40;99.90;;;;;;5013362;28;20018;-75
2021/12/01 05:05:01;;;;;;;3.30;0.95;;;9.30;99.90;;;;;;5013220;28;20525;-75
2021/12/01 05:07:27;;;;;;;2.67;0.70;;;9.30;99.90;;;;;;5012029;28;20470;-75
2021/12/01 05:09:54;;;;;;;1.65;0.70;;;9.30;99.90;;;;;;5013249;28;20473;-75
2021/12/01 05:12:19;;;;;;;1.77;0.70;;;9.30;99.90;;;;;;5012443;28;20104;-75
2021/12/01 05:14:45;;;;;;;2.78;0.90;;;9.30;99.90;;;;;;5012934;28;20418;-75
2021/12/01 05:17:11;;;;;;;3.47;1.00;;;9.30;99.90;;;;;;5012461;28;20030;-75
2021/12/01 05:19:37;;;;;;;1.55;0.82;;;9.30;99.90;;;;;;5011241;28;20034;-75
2021/12/01 05:22:04;;;;;;;1.15;0.73;;;9.30;99.90;;;;;;5012690;28;20022;-75
2021/12/01 05:24:29;;;;;;;2.20;0.90;;;9.30;99.90;;;;;;5013027;28;20026;-75
2021/12/01 05:26:55;;;;;;;1.60;0.70;;;9.30;99.90;;;;;;5011249;28;20510;-75
2021/12/01 05:29:23;;;;;;;2.90;1.10;;;9.30;99.90;;;;;;5012652;28;20034;-75
2021/12/01 05:31:49;;;;;;;3.92;1.20;;;9.20;99.90;;;;;;5011410;28;20025;-75
2021/12/01 05:34:15;;;;;;;1.33;0.80;;;9.20;99.90;;;;;;5012187;28;20255;-75
2021/12/01 05:36:41;;;;;;;3.30;0.85;;;9.20;99.90;;;;;;5012613;28;20022;-75
2021/12/01 05:39:07;;;;;;;2.35;0.90;;;9.20;99.90;;;;;;5003333;28;20056;-75
2021/12/01 05:41:32;;;;;;;2.05;0.80;;;9.20;99.90;;;;;;4997615;28;20058;-75
2021/12/01 05:43:58;;;;;;;5.45;0.85;;;9.20;99.90;;;;;;4992401;28;20101;-75
2021/12/01 05:46:24;;;;;;;1.65;0.77;;;9.10;99.90;;;;;;4991475;28;20032;-75
2021/12/01 05:48:52;;;;;;;1.70;0.80;;;9.10;99.90;;;;;;4992836;28;20113;-75
2021/12/01 05:51:19;;;;;;;1.63;0.80;;;9.20;99.90;;;;;;4991306;28;20030;-75
2021/12/01 05:53:45;;;;;;;1.73;0.70;;;9.20;99.90;;;;;;4993075;28;20030;-74
2021/12/01 05:56:11;;;;;;;1.05;0.55;;;9.20;99.90;;;;;;4992471;28;20081;-75
2021/12/01 05:58:37;;;;;;;1.75;0.60;;;9.10;99.90;;;;;;4992889;28;20038;-75
2021/12/01 06:01:02;;;;;;;2.85;0.80;;;9.20;99.90;;;;;;4992273;28;20019;-74
2021/12/01 06:03:28;;;;;;;1.50;0.70;;;9.20;99.90;;;;;;4991577;28;20482;-75
2021/12/01 06:05:54;;;;;;;0.80;0.52;;;9.20;99.90;;;;;;4991754;28;20379;-75
2021/12/01 06:08:20;;;;;;;0.57;0.38;;;9.10;99.90;;;;;;4988590;28;20086;-77
2021/12/01 06:10:46;;;;;;;0.45;0.40;;;9.20;99.90;;;;;;4989328;28;20093;-77
2021/12/01 06:13:18;;;;;;;1.58;0.50;;;9.20;99.90;;;;;;4988835;28;20034;-76
2021/12/01 06:15:50;;;;;;;0.40;0.30;;;9.20;99.90;;;;;;4989341;28;20330;-76
2021/12/01 06:18:17;;;;;;;0.55;0.47;;;9.20;99.90;;;;;;4988796;28;20030;-75
2021/12/01 06:20:42;;;;;;;0.50;0.30;;;9.10;99.90;;;;;;4988743;28;20489;-75
2021/12/01 06:23:08;;;;;;;0.40;0.40;;;9.10;99.90;;;;;;4990168;28;20323;-75
2021/12/01 06:25:35;;;;;;;0.28;0.28;;;9.10;99.90;;;;;;4992554;28;20023;-75
2021/12/01 06:28:00;;;;;;;0.55;0.50;;;9.10;99.90;;;;;;4992693;28;20030;-75
2021/12/01 06:30:31;;;;;;;0.73;0.40;;;9.10;99.90;;;;;;4995879;28;20025;-75
2021/12/01 06:32:57;;;;;;;0.50;0.50;;;9.10;99.90;;;;;;5015233;28;20072;-74
2021/12/01 06:35:23;;;;;;;0.88;0.45;;;9.10;99.90;;;;;;5016188;28;20030;-76
2021/12/01 06:37:50;;;;;;;0.60;0.50;;;9.10;99.90;;;;;;5016077;28;20101;-76
2021/12/01 06:40:17;;;;;;;0.30;0.30;;;9.10;99.90;;;;;;5013852;28;20050;-76
2021/12/01 06:42:43;;;;;;;0.40;0.40;;;9.10;99.90;;;;;;5015994;28;20088;-77
2021/12/01 06:45:11;;;;;;;0.98;0.40;;;9.10;99.90;;;;;;5014289;28;20397;-76
2021/12/01 06:47:38;;;;;;;2.05;0.57;;;9.10;99.90;;;;;;5014702;28;20445;-76
2021/12/01 06:50:05;;;;;;;0.55;0.40;;;9.10;99.90;;;;;;5015676;28;20026;-74
2021/12/01 06:52:31;;;;;;;0.40;0.40;;;9.10;99.90;;;;;;5015357;28;20026;-74
2021/12/01 06:54:58;;;;;;;0.32;0.30;;;9.10;99.90;;;;;;5015732;28;20101;-74
2021/12/01 06:57:24;;;;;;;0.30;0.30;;;9.10;99.90;;;;;;5015024;28;20026;-74
2021/12/01 06:59:50;;;;;;;0.52;0.52;;;9.00;99.90;;;;;;5014474;28;20056;-74
2021/12/01 07:02:17;;;;;;;0.43;0.35;;;9.00;99.90;;;;;;5013781;28;20486;-74
2021/12/01 07:04:46;;;;;;;0.30;0.30;;;9.00;99.90;;;;;;5015263;28;20485;-74
2021/12/01 07:07:12;;;;;;;2.15;0.40;;;9.00;99.90;;;;;;5015131;28;20129;-74
2021/12/01 07:09:38;;;;;;;0.73;0.40;;;8.90;99.90;;;;;;5014207;28;20030;-74
2021/12/01 07:12:05;;;;;;;0.30;0.30;;;8.90;99.90;;;;;;5015314;28;20026;-74
2021/12/01 07:14:30;;;;;;;0.60;0.35;;;8.90;99.90;;;;;;5015665;28;20088;-75
2021/12/01 07:16:56;;;;;;;0.38;0.38;;;9.00;99.90;;;;;;5015381;28;20480;-74
2021/12/01 07:19:22;;;;;;;0.40;0.35;;;9.00;99.90;;;;;;5013543;28;20029;-74
2021/12/01 07:21:48;;;;;;;0.40;0.40;;;9.00;99.90;;;;;;5013821;28;20033;-74
2021/12/01 07:24:15;;;;;;;0.28;0.28;;;9.00;99.90;;;;;;5014761;28;20025;-74
2021/12/01 07:26:42;;;;;;;0.65;0.35;;;9.00;99.90;;;;;;5015231;28;20034;-75
2021/12/01 07:29:08;;;;;;;0.40;0.40;;;8.90;99.90;;;;;;5013395;28;20030;-75
2021/12/01 07:31:34;;;;;;;0.32;0.30;;;8.90;99.90;;;;;;5015107;28;20076;-75
2021/12/01 07:33:59;;;;;;;0.20;0.20;;;8.90;99.90;;;;;;5013649;28;20022;-75
2021/12/01 07:36:25;;;;;;;0.82;0.40;;;8.90;99.90;;;;;;5013684;28;20028;-75
2021/12/01 07:38:53;;;;;;;0.30;0.30;;;8.90;99.90;;;;;;5013739;28;20474;-76
2021/12/01 07:41:18;;;;;;;1.50;0.32;;;8.90;99.90;;;;;;5012818;28;20049;-75
2021/12/01 07:43:44;;;;;;;0.40;0.40;;;8.90;99.90;;;;;;5014722;28;20036;-75
2021/12/01 07:46:10;;;;;;;0.90;0.30;;;9.00;99.90;;;;;;5013973;28;20062;-75
2021/12/01 07:48:36;;;;;;;0.73;0.40;;;9.00;99.90;;;;;;5014761;28;20022;-74
2021/12/01 07:51:03;;;;;;;0.30;0.30;;;9.00;99.90;;;;;;5014651;28;20026;-74
2021/12/01 07:53:29;;;;;;;0.65;0.30;;;9.00;99.90;;;;;;5012945;28;20467;-75
2021/12/01 07:55:55;;;;;;;0.45;0.30;;;9.00;99.90;;;;;;5014609;28;20037;-75
2021/12/01 07:58:20;;;;;;;0.75;0.40;;;9.10;99.90;;;;;;5012609;28;20201;-75
2021/12/01 08:00:46;;;;;;;1.35;0.32;;;9.10;99.90;;;;;;5014293;28;20030;-75
2021/12/01 08:03:12;;;;;;;0.80;0.32;;;9.10;99.90;;;;;;5013918;28;20033;-75
2021/12/01 08:05:38;;;;;;;0.82;0.60;;;9.10;99.90;;;;;;5014308;28;20034;-75
2021/12/01 08:08:05;;;;;;;0.52;0.35;;;9.10;99.90;;;;;;5012700;28;20052;-74
2021/12/01 08:10:31;;;;;;;0.88;0.40;;;9.10;99.90;;;;;;5012598;28;20492;-75
2021/12/01 08:13:00;;;;;;;0.45;0.30;;;9.20;99.90;;;;;;5014229;28;20028;-75
2021/12/01 08:15:26;;;;;;;0.32;0.30;;;9.20;99.90;;;;;;5013863;28;20117;-75
2021/12/01 08:17:52;;;;;;;0.43;0.30;;;9.20;99.90;;;;;;5014118;28;20113;-75
2021/12/01 08:20:19;;;;;;;0.30;0.30;;;9.20;99.90;;;;;;5014008;28;20018;-75
2021/12/01 08:22:44;;;;;;;0.55;0.40;;;9.20;99.90;;;;;;5013818;28;20025;-75
2021/12/01 08:25:10;;;;;;;1.02;0.55;;;9.20;99.90;;;;;;5013441;28;20033;-75
2021/12/01 08:27:36;;;;;;;0.77;0.40;;;9.20;99.90;;;;;;5014457;28;20026;-75
2021/12/01 08:30:03;;;;;;;0.65;0.30;;;9.30;99.90;;;;;;5012601;28;20033;-75
2021/12/01 08:32:28;;;;;;;1.15;0.45;;;9.30;99.90;;;;;;5013338;28;20095;-75
2021/12/01 08:34:54;;;;;;;0.30;0.30;;;9.40;99.90;;;;;;5014071;28;20022;-75
2021/12/01 08:37:20;;;;;;;0.43;0.40;;;9.40;99.90;;;;;;5011992;28;20058;-75
2021/12/01 08:39:50;;;;;;;1.17;0.65;;;9.40;99.90;;;;;;5013674;28;20030;-75
2021/12/01 08:42:18;;;;;;;2.50;0.68;;;9.40;99.90;;;;;;5011755;28;20054;-75
2021/12/01 08:44:47;;;;;;;2.10;0.73;;;9.50;99.90;;;;;;5013319;28;20026;-75
2021/12/01 08:47:20;;;;;;;1.58;0.60;;;9.50;99.90;;;;;;5012504;28;20057;-75
2021/12/01 08:49:46;;;;;;;0.95;0.70;;;9.50;99.90;;;;;;5011859;28;20022;-75
2021/12/01 08:52:12;;;;;;;1.27;0.60;;;9.50;99.90;;;;;;5012753;28;20474;-75
2021/12/01 08:54:38;;;;;;;1.77;0.47;;;9.60;99.90;;;;;;5012098;28;20032;-75
2021/12/01 08:57:05;;;;;;;1.00;0.63;;;9.60;99.90;;;;;;5013388;28;20026;-76
2021/12/01 08:59:31;;;;;;;1.98;0.80;;;9.60;99.90;;;;;;5012769;28;20054;-75
2021/12/01 09:01:57;;;;;;;1.60;0.63;;;9.60;99.90;;;;;;5013409;28;20022;-76
2021/12/01 09:04:23;;;;;;;1.65;0.80;;;9.60;99.90;;;;;;5011454;28;20473;-73
2021/12/01 09:06:48;;;;;;;1.40;0.55;;;9.60;99.90;;;;;;5012251;28;20057;-74
2021/12/01 09:09:20;;;;;;;1.80;0.70;;;9.60;99.90;;;;;;5012719;28;20025;-75
2021/12/01 09:11:46;;;;;;;;;;;9.60;99.90;;;;;;5013874;28;20025;-75
2021/12/01 09:14:12;;;;;;;1.58;0.60;;;9.50;99.90;;;;;;5012778;28;19915;-76
2021/12/01 09:16:39;;;;;;;1.20;0.60;;;9.50;99.90;;;;;;5013230;28;20026;-76
2021/12/01 09:19:05;;;;;;;2.28;0.80;;;9.40;99.90;;;;;;5012990;28;20034;-76
2021/12/01 09:21:31;;;;;;;1.27;0.70;;;9.40;99.90;;;;;;5011315;28;20807;-77
2021/12/01 09:23:56;;;;;;;2.20;0.70;;;9.30;99.90;;;;;;5013091;28;20022;-76
2021/12/01 09:26:22;;;;;;;0.57;0.57;;;9.30;99.90;;;;;;5012276;28;20061;-77
2021/12/01 09:28:48;;;;;;;2.10;0.75;;;9.20;99.90;;;;;;5012944;28;20147;-77
2021/12/01 09:31:13;;;;;;;1.30;0.60;;;9.20;99.90;;;;;;5012155;28;20026;-77
2021/12/01 09:33:39;;;;;;;1.02;0.50;;;9.20;99.90;;;;;;5012830;28;20528;-77
2021/12/01 09:36:05;;;;;;;0.50;0.50;;;9.20;99.90;;;;;;5011461;28;20111;-77
2021/12/01 09:38:31;;;;;;;0.47;0.47;;;9.10;99.90;;;;;;5010964;28;20029;-77
2021/12/01 09:40:57;;;;;;;0.40;0.40;;;9.10;99.90;;;;;;5011127;28;20398;-77
2021/12/01 09:43:26;;;;;;;0.40;0.40;;;9.10;99.90;;;;;;5012275;28;20034;-76
2021/12/01 09:45:52;;;;;;;0.38;0.38;;;9.10;99.90;;;;;;5012637;28;20037;-76
2021/12/01 09:48:19;;;;;;;0.30;0.30;;;9.10;99.90;;;;;;5012227;28;20037;-76
2021/12/01 09:50:45;;;;;;;0.20;0.20;;;9.10;99.90;;;;;;5012298;28;20018;-76
2021/12/01 09:53:11;;;;;;;0.22;0.20;;;9.10;99.90;;;;;;5012598;28;20033;-76
2021/12/01 09:55:37;;;;;;;0.20;0.20;;;9.10;99.90;;;;;;5010812;28;20026;-75
2021/12/01 09:58:19;;;;;;;0.30;0.30;;;9.10;99.90;;;;;;5011167;28;20018;-75
2021/12/01 10:00:52;;;;;;;0.20;0.20;;;9.10;99.90;;;;;;5012228;28;20026;-75
2021/12/01 10:03:18;;;;;;;0.30;0.30;;;9.00;99.90;;;;;;5010425;28;20037;-74
2021/12/01 10:06:25;;;;;;;0.20;0.20;;;9.00;99.90;;;;;;5012455;28;20026;-74
2021/12/01 10:09:04;;;;;;;0.22;0.22;;;9.10;99.90;;;;;;5012351;28;20549;-75
2021/12/01 10:11:33;;;;;;;0.38;0.30;;;9.10;99.90;;;;;;5012091;28;20037;-74
2021/12/01 10:14:15;;;;;;;0.25;0.20;;;9.10;99.90;;;;;;5010985;28;20338;-74
2021/12/01 10:16:43;;;;;;;0.20;0.20;;;9.20;99.90;;;;;;5012386;28;20022;-75
2021/12/01 10:19:13;;;;;;;0.20;0.20;;;9.20;99.90;;;;;;5012293;28;20026;-74
2021/12/01 10:21:47;;;;;;;0.57;0.30;;;9.30;99.90;;;;;;5010555;28;20014;-74
2021/12/01 10:24:15;;;;;;;0.30;0.30;;;9.30;99.90;;;;;;5010892;28;20489;-74
2021/12/01 10:26:45;;;;;;;0.20;0.20;;;9.40;99.90;;;;;;5011938;28;20176;-74
2021/12/01 10:29:27;;;;;;;1.50;0.30;;;9.30;99.90;;;;;;5012235;28;20022;-74
2021/12/01 10:32:14;;;;;;;0.25;0.25;;;9.30;99.90;;;;;;5011037;28;20014;-74
2021/12/01 10:34:45;;;;;;;0.20;0.20;;;9.30;99.90;;;;;;5011658;28;20466;-74
2021/12/01 10:37:28;;;;;;;0.20;0.20;;;9.30;99.90;;;;;;5012305;28;20092;-74
2021/12/01 10:40:12;;;;;;;0.20;0.20;;;9.40;99.90;;;;;;5010850;28;20072;-74
2021/12/01 10:43:01;;;;;;;0.20;0.20;;;9.40;99.90;;;;;;5011838;28;20033;-74
2021/12/01 10:45:31;;;;;;;0.20;0.20;;;9.50;99.90;;;;;;5011568;28;20101;-74
2021/12/01 10:47:57;;;;;;;0.20;0.20;;;9.60;99.90;;;;;;5010633;28;20025;-75
2021/12/01 10:50:26;;;;;;;0.20;0.20;;;9.60;99.90;;;;;;5011580;28;20073;-75
2021/12/01 10:53:00;;;;;;;0.10;0.10;;;9.50;99.90;;;;;;5011712;28;20053;-75
2021/12/01 10:55:26;;;;;;;0.20;0.20;;;9.40;99.90;;;;;;5010238;28;20045;-75
2021/12/01 10:57:58;;;;;;;0.20;0.20;;;9.30;99.90;;;;;;5010691;28;20385;-74
2021/12/01 11:00:32;;;;;;;0.20;0.20;;;9.30;99.90;;;;;;5011587;28;20037;-75
2021/12/01 11:03:09;;;;;;;0.20;0.20;;;9.20;99.90;;;;;;5010835;28;20029;-75
2021/12/01 11:05:45;;;;;;;0.20;0.20;;;9.20;99.90;;;;;;5010257;28;20422;-74
2021/12/01 11:08:31;;;;;;;0.20;0.20;;;9.20;99.90;;;;;;5012065;28;20081;-74
2021/12/01 11:11:13;;;;;;;0.20;0.20;;;9.30;99.90;;;;;;5012894;28;20018;-74
2021/12/01 11:13:42;;;;;;;0.20;0.20;;;9.30;99.90;;;;;;5015019;28;20317;-74
2021/12/01 11:16:13;;;;;;;0.20;0.20;;;9.30;99.90;;;;;;5015433;28;20026;-74
2021/12/01 11:18:41;;;;;;;0.25;0.25;;;9.30;99.90;;;;;;5014867;28;20096;-74
2021/12/01 11:21:16;;;;;;;0.20;0.20;;;9.40;99.90;;;;;;5014076;28;20022;-74
2021/12/01 11:23:51;;;;;;;0.30;0.30;;;9.40;99.90;;;;;;5014730;28;20037;-74
2021/12/01 11:26:22;;;;;;;0.20;0.20;;;9.40;99.90;;;;;;5013953;28;20431;-74
2021/12/01 11:28:51;;;;;;;0.20;0.20;;;9.40;99.90;;;;;;5014051;28;20021;-73
2021/12/01 11:31:29;;;;;;;0.20;0.20;;;9.40;99.90;;;;;;5015029;28;20021;-74
2021/12/01 11:33:59;;;;;;;0.50;0.20;;;9.50;99.90;;;;;;5015182;28;20092;-75
2021/12/01 11:36:28;;;;;;;0.20;0.20;;;9.50;99.90;;;;;;5014604;28;20112;-75
2021/12/01 11:38:58;;;;;;;0.20;0.20;;;9.50;99.90;;;;;;5014713;28;20065;-74
2021/12/01 11:41:25;;;;;;;0.30;0.30;;;9.50;99.90;;;;;;5012750;28;20129;-75
2021/12/01 11:43:51;;;;;;;0.30;0.20;;;9.50;99.90;;;;;;5014873;28;20141;-75
2021/12/01 11:46:18;;;;;;;0.30;0.30;;;9.40;99.90;;;;;;5014877;28;20102;-75
2021/12/01 11:48:50;;;;;;;0.20;0.20;;;9.40;99.90;;;;;;5012820;28;20470;-75
2021/12/01 11:51:28;;;;;;;0.20;0.20;;;9.50;99.90;;;;;;5014699;28;20030;-76
2021/12/01 11:54:06;;;;;;;0.20;0.20;;;9.50;99.90;;;;;;5014715;28;20029;-75
2021/12/01 11:56:35;;;;;;;0.30;0.30;;;9.50;99.90;;;;;;5014416;28;20092;-75
2021/12/01 11:59:13;;;;;;;0.30;0.30;;;9.50;99.90;;;;;;5014574;28;20076;-75
2021/12/01 12:01:44;;;;;;;0.30;0.30;;;9.50;99.90;;;;;;5012748;28;20480;-75
2021/12/01 12:04:13;;;;;;;0.52;0.28;;;9.50;99.90;;;;;;5013370;28;20478;-74
2021/12/01 12:06:58;;;;;;;0.68;0.20;;;9.40;99.90;;;;;;5012491;28;20032;-74
2021/12/01 12:09:27;;;;;;;1.88;0.30;;;9.40;99.90;;;;;;5012711;28;20022;-74
2021/12/01 12:11:56;;;;;;;0.30;0.30;;;9.40;99.90;;;;;;5013178;28;20026;-75
2021/12/01 12:14:38;;;;;;;0.20;0.20;;;9.40;99.90;;;;;;5014180;28;20105;-74
2021/12/01 12:17:13;;;;;;;0.28;0.28;;;9.40;99.90;;;;;;5013150;28;20049;-74
2021/12/01 12:19:51;;;;;;;0.20;0.20;;;9.40;99.90;;;;;;5013794;28;20033;-74
2021/12/01 12:22:33;;;;;;;1.17;0.30;;;9.40;99.90;;;;;;5014098;28;20486;-74
2021/12/01 12:24:59;;;;;;;0.30;0.20;;;9.50;99.90;;;;;;5012814;28;20022;-74
2021/12/01 12:27:45;;;;;;;0.40;0.22;;;9.50;99.90;;;;;;5012482;28;20076;-74
2021/12/01 12:30:29;;;;;;;0.20;0.20;;;9.50;99.90;;;;;;5014024;28;20025;-74
2021/12/01 12:33:21;;;;;;;1.08;0.30;;;9.50;99.90;;;;;;5013865;28;20026;-74
2021/12/01 12:35:53;;;;;;;0.20;0.20;;;9.50;99.90;;;;;;5012145;28;20382;-74
2021/12/01 12:38:19;;;;;;;0.43;0.40;;;9.50;99.90;;;;;;5014003;28;20026;-74
2021/12/01 12:40:46;;;;;;;0.50;0.30;;;9.40;99.90;;;;;;5013138;28;20385;-74
2021/12/01 12:43:13;;;;;;;0.40;0.40;;;9.40;99.90;;;;;;5012424;28;20091;-74
2021/12/01 12:45:41;;;;;;;0.25;0.25;;;9.50;99.90;;;;;;5011846;28;20038;-75
2021/12/01 12:48:25;;;;;;;0.30;0.30;;;9.50;99.90;;;;;;5013504;28;20017;-75
2021/12/01 12:51:26;;;;;;;0.20;0.20;;;9.50;99.90;;;;;;5012426;28;20104;-74
2021/12/01 12:54:01;;;;;;;0.33;0.30;;;9.60;99.90;;;;;;5005191;28;20042;-75
2021/12/01 12:57:06;;;;;;;0.20;0.20;;;9.60;99.90;;;;;;5012289;28;20467;-76
2021/12/01 12:59:33;;;;;;;0.20;0.20;;;9.60;99.90;;;;;;5006304;28;20053;-73
2021/12/01 13:02:08;;;;;;;0.20;0.20;;;9.60;99.90;;;;;;5013969;28;20462;-75
2021/12/01 13:04:52;;;;;;;0.20;0.20;;;9.70;99.90;;;;;;5011633;28;20054;-75
2021/12/01 13:07:38;;;;;;;0.30;0.30;;;9.80;99.90;;;;;;5012325;28;20121;-75